sensor_id;sensor_type;location;lat;lon;timestamp;P1;durP1;ratioP1;P2;durP2;ratioP2
14520;SDS011;7347;50.844;4.490;2023-03-05T08:59:01;3.00;;;1.53;;
14520;SDS011;7347;50.844;4.490;2023-03-05T09:01:29;3.50;;;1.80;;
14520;SDS011;7347;50.844;4.490;2023-03-05T09:03:56;2.93;;;1.47;;
14520;SDS011;7347;50.844;4.490;2023-03-05T09:06:24;4.63;;;1.97;;
14520;SDS011;7347;50.844;4.490;2023-03-05T09:08:51;2.83;;;1.50;;
14520;SDS011;7347;50.844;4.490;2023-03-05T09:11:19;2.27;;;1.20;;
14520;SDS011;7347;50.844;4.490;2023-03-05T09:13:46;3.93;;;1.40;;
14520;SDS011;7347;50.844;4.490;2023-03-05T09:16:15;2.37;;;1.00;;
14520;SDS011;7347;50.844;4.490;2023-03-05T09:18:42;1.87;;;1.30;;
14520;SDS011;7347;50.844;4.490;2023-03-05T09:21:10;2.23;;;1.37;;
14520;SDS011;7347;50.844;4.490;2023-03-05T09:23:39;1.67;;;1.20;;
14520;SDS011;7347;50.844;4.490;2023-03-05T09:26:06;1.53;;;1.23;;
14520;SDS011;7347;50.844;4.490;2023-03-05T09:28:34;2.53;;;1.40;;
14520;SDS011;7347;50.844;4.490;2023-03-05T09:31:01;2.13;;;1.40;;
14520;SDS011;7347;50.844;4.490;2023-03-05T09:33:31;2.17;;;1.30;;
14520;SDS011;7347;50.844;4.490;2023-03-05T09:35:58;2.93;;;1.50;;
14520;SDS011;7347;50.844;4.490;2023-03-05T09:38:25;2.60;;;1.70;;
14520;SDS011;7347;50.844;4.490;2023-03-05T09:40:54;2.70;;;1.30;;
14520;SDS011;7347;50.844;4.490;2023-03-05T09:43:33;2.67;;;1.70;;
14520;SDS011;7347;50.844;4.490;2023-03-05T09:46:12;2.10;;;1.30;;
14520;SDS011;7347;50.844;4.490;2023-03-05T09:48:50;2.00;;;1.50;;
14520;SDS011;7347;50.844;4.490;2023-03-05T09:51:21;3.37;;;2.10;;
14520;SDS011;7347;50.844;4.490;2023-03-05T09:53:52;4.07;;;2.30;;
14520;SDS011;7347;50.844;4.490;2023-03-05T09:56:26;4.97;;;2.13;;
14520;SDS011;7347;50.844;4.490;2023-03-05T09:58:57;9.57;;;2.30;;
14520;SDS011;7347;50.844;4.490;2023-03-05T10:01:28;2.23;;;1.77;;
14520;SDS011;7347;50.844;4.490;2023-03-05T10:04:05;5.63;;;2.10;;
14520;SDS011;7347;50.844;4.490;2023-03-05T10:06:38;1.70;;;1.30;;
14520;SDS011;7347;50.844;4.490;2023-03-05T10:09:12;2.40;;;1.33;;
14520;SDS011;7347;50.844;4.490;2023-03-05T10:11:46;4.27;;;1.80;;
14520;SDS011;7347;50.844;4.490;2023-03-05T10:14:21;3.80;;;1.67;;
14520;SDS011;7347;50.844;4.490;2023-03-05T10:22:53;1.33;;;0.90;;
14520;SDS011;7347;50.844;4.490;2023-03-05T10:25:33;3.17;;;1.17;;
14520;SDS011;7347;50.844;4.490;2023-03-05T10:28:17;2.00;;;1.27;;
14520;SDS011;7347;50.844;4.490;2023-03-05T10:30:51;2.27;;;1.23;;
14520;SDS011;7347;50.844;4.490;2023-03-05T10:33:39;2.63;;;1.60;;
14520;SDS011;7347;50.844;4.490;2023-03-05T10:36:23;3.53;;;1.27;;
14520;SDS011;7347;50.844;4.490;2023-03-05T10:39:10;2.90;;;1.37;;
14520;SDS011;7347;50.844;4.490;2023-03-05T10:41:56;1.67;;;1.13;;
14520;SDS011;7347;50.844;4.490;2023-03-05T10:44:31;2.27;;;1.23;;
14520;SDS011;7347;50.844;4.490;2023-03-05T10:47:06;1.57;;;0.87;;
14520;SDS011;7347;50.844;4.490;2023-03-05T10:49:42;1.90;;;1.17;;
14520;SDS011;7347;50.844;4.490;2023-03-05T10:52:17;1.70;;;1.20;;
14520;SDS011;7347;50.844;4.490;2023-03-05T10:54:47;2.37;;;1.17;;
14520;SDS011;7347;50.844;4.490;2023-03-05T10:57:16;1.20;;;0.83;;
14520;SDS011;7347;50.844;4.490;2023-03-05T10:59:46;1.67;;;0.80;;
14520;SDS011;7347;50.844;4.490;2023-03-05T11:02:20;2.03;;;0.90;;
14520;SDS011;7347;50.844;4.490;2023-03-05T11:04:49;1.33;;;0.83;;
14520;SDS011;7347;50.844;4.490;2023-03-05T11:07:35;2.00;;;0.80;;
14520;SDS011;7347;50.844;4.490;2023-03-05T11:12:47;4.80;;;0.77;;
14520;SDS011;7347;50.844;4.490;2023-03-05T11:15:22;1.27;;;0.80;;
14520;SDS011;7347;50.844;4.490;2023-03-05T11:20:49;2.40;;;0.87;;
14520;SDS011;7347;50.844;4.490;2023-03-05T11:23:18;2.30;;;0.70;;
14520;SDS011;7347;50.844;4.490;2023-03-05T11:25:54;2.00;;;0.70;;
14520;SDS011;7347;50.844;4.490;2023-03-05T11:28:24;1.20;;;0.77;;
14520;SDS011;7347;50.844;4.490;2023-03-05T11:30:54;1.33;;;0.90;;
14520;SDS011;7347;50.844;4.490;2023-03-05T11:33:24;1.80;;;0.90;;
14520;SDS011;7347;50.844;4.490;2023-03-05T11:35:52;2.17;;;0.90;;
14520;SDS011;7347;50.844;4.490;2023-03-05T11:38:43;3.00;;;0.80;;
14520;SDS011;7347;50.844;4.490;2023-03-05T11:41:11;2.47;;;1.10;;
14520;SDS011;7347;50.844;4.490;2023-03-05T11:43:38;2.57;;;1.30;;
14520;SDS011;7347;50.844;4.490;2023-03-05T11:46:08;2.37;;;1.40;;
14520;SDS011;7347;50.844;4.490;2023-03-05T11:48:37;1.53;;;0.87;;
14520;SDS011;7347;50.844;4.490;2023-03-05T11:51:07;2.20;;;1.00;;
14520;SDS011;7347;50.844;4.490;2023-03-05T11:53:48;1.73;;;1.00;;
14520;SDS011;7347;50.844;4.490;2023-03-05T11:56:23;1.00;;;0.60;;
14520;SDS011;7347;50.844;4.490;2023-03-05T11:58:53;1.97;;;0.80;;
14520;SDS011;7347;50.844;4.490;2023-03-05T12:01:26;3.40;;;0.83;;
14520;SDS011;7347;50.844;4.490;2023-03-05T12:03:55;1.93;;;1.00;;
14520;SDS011;7347;50.844;4.490;2023-03-05T12:06:25;1.53;;;0.80;;
14520;SDS011;7347;50.844;4.490;2023-03-05T12:08:59;0.90;;;0.60;;
14520;SDS011;7347;50.844;4.490;2023-03-05T12:11:29;1.30;;;0.63;;
14520;SDS011;7347;50.844;4.490;2023-03-05T12:13:58;2.83;;;0.77;;
14520;SDS011;7347;50.844;4.490;2023-03-05T12:16:32;1.27;;;0.80;;
14520;SDS011;7347;50.844;4.490;2023-03-05T12:19:10;4.17;;;1.10;;
14520;SDS011;7347;50.844;4.490;2023-03-05T12:22:15;2.13;;;0.80;;
14520;SDS011;7347;50.844;4.490;2023-03-05T12:24:46;1.43;;;0.83;;
14520;SDS011;7347;50.844;4.490;2023-03-05T12:27:14;1.93;;;1.03;;
14520;SDS011;7347;50.844;4.490;2023-03-05T12:29:56;2.07;;;1.10;;
14520;SDS011;7347;50.844;4.490;2023-03-05T12:35:30;3.57;;;1.90;;
14520;SDS011;7347;50.844;4.490;2023-03-05T12:38:16;4.40;;;1.43;;
14520;SDS011;7347;50.844;4.490;2023-03-05T12:44:13;2.53;;;1.10;;
14520;SDS011;7347;50.844;4.490;2023-03-05T12:46:43;3.83;;;1.83;;
14520;SDS011;7347;50.844;4.490;2023-03-05T12:49:28;1.70;;;1.23;;
14520;SDS011;7347;50.844;4.490;2023-03-05T12:52:00;3.07;;;1.30;;
14520;SDS011;7347;50.844;4.490;2023-03-05T12:54:30;4.83;;;1.80;;
14520;SDS011;7347;50.844;4.490;2023-03-05T12:56:58;5.20;;;2.77;;
14520;SDS011;7347;50.844;4.490;2023-03-05T12:59:36;3.13;;;1.77;;
14520;SDS011;7347;50.844;4.490;2023-03-05T13:02:15;3.97;;;1.97;;
14520;SDS011;7347;50.844;4.490;2023-03-05T13:04:51;3.77;;;2.27;;
14520;SDS011;7347;50.844;4.490;2023-03-05T13:07:23;5.63;;;3.00;;
14520;SDS011;7347;50.844;4.490;2023-03-05T13:09:50;5.47;;;2.50;;
14520;SDS011;7347;50.844;4.490;2023-03-05T13:12:18;5.03;;;2.90;;
14520;SDS011;7347;50.844;4.490;2023-03-05T13:14:47;7.03;;;3.80;;
14520;SDS011;7347;50.844;4.490;2023-03-05T13:17:26;5.63;;;3.50;;
14520;SDS011;7347;50.844;4.490;2023-03-05T13:19:57;7.83;;;4.93;;
14520;SDS011;7347;50.844;4.490;2023-03-05T13:22:26;5.90;;;2.57;;
14520;SDS011;7347;50.844;4.490;2023-03-05T13:25:03;4.67;;;2.90;;
14520;SDS011;7347;50.844;4.490;2023-03-05T13:27:41;5.57;;;3.03;;
14520;SDS011;7347;50.844;4.490;2023-03-05T13:30:22;6.77;;;3.27;;
14520;SDS011;7347;50.844;4.490;2023-03-05T13:32:51;4.70;;;2.80;;
14520;SDS011;7347;50.844;4.490;2023-03-05T13:35:19;5.27;;;2.90;;
14520;SDS011;7347;50.844;4.490;2023-03-05T13:37:46;4.70;;;2.50;;
14520;SDS011;7347;50.844;4.490;2023-03-05T13:40:17;3.17;;;1.43;;
14520;SDS011;7347;50.844;4.490;2023-03-05T13:42:46;1.70;;;1.10;;
14520;SDS011;7347;50.844;4.490;2023-03-05T13:45:20;1.50;;;0.80;;
14520;SDS011;7347;50.844;4.490;2023-03-05T13:47:53;1.87;;;1.10;;
14520;SDS011;7347;50.844;4.490;2023-03-05T13:50:23;1.13;;;0.80;;
14520;SDS011;7347;50.844;4.490;2023-03-05T13:52:52;1.40;;;0.80;;
14520;SDS011;7347;50.844;4.490;2023-03-05T13:55:19;3.90;;;0.80;;
14520;SDS011;7347;50.844;4.490;2023-03-05T13:57:47;2.23;;;0.80;;
14520;SDS011;7347;50.844;4.490;2023-03-05T14:00:28;1.13;;;0.80;;
14520;SDS011;7347;50.844;4.490;2023-03-05T14:02:58;1.93;;;0.83;;
14520;SDS011;7347;50.844;4.490;2023-03-05T14:05:26;0.90;;;0.60;;
14520;SDS011;7347;50.844;4.490;2023-03-05T14:07:55;1.70;;;1.00;;
14520;SDS011;7347;50.844;4.490;2023-03-05T14:10:25;1.93;;;0.80;;
14520;SDS011;7347;50.844;4.490;2023-03-05T14:12:54;1.47;;;0.70;;
14520;SDS011;7347;50.844;4.490;2023-03-05T14:15:23;1.50;;;0.80;;
14520;SDS011;7347;50.844;4.490;2023-03-05T14:18:05;2.47;;;0.80;;
14520;SDS011;7347;50.844;4.490;2023-03-05T14:20:56;1.37;;;0.60;;
14520;SDS011;7347;50.844;4.490;2023-03-05T14:23:35;0.63;;;0.63;;
14520;SDS011;7347;50.844;4.490;2023-03-05T14:28:53;2.43;;;0.93;;
14520;SDS011;7347;50.844;4.490;2023-03-05T14:31:22;1.30;;;0.83;;
14520;SDS011;7347;50.844;4.490;2023-03-05T14:33:52;1.20;;;0.50;;
14520;SDS011;7347;50.844;4.490;2023-03-05T14:36:25;1.23;;;0.70;;
14520;SDS011;7347;50.844;4.490;2023-03-05T14:38:54;1.53;;;0.77;;
14520;SDS011;7347;50.844;4.490;2023-03-05T14:41:29;0.80;;;0.40;;
14520;SDS011;7347;50.844;4.490;2023-03-05T14:44:07;1.80;;;0.50;;
14520;SDS011;7347;50.844;4.490;2023-03-05T14:46:36;0.63;;;0.43;;
14520;SDS011;7347;50.844;4.490;2023-03-05T14:49:04;0.50;;;0.30;;
14520;SDS011;7347;50.844;4.490;2023-03-05T14:51:31;0.90;;;0.57;;
14520;SDS011;7347;50.844;4.490;2023-03-05T14:54:02;0.93;;;0.50;;
14520;SDS011;7347;50.844;4.490;2023-03-05T14:56:29;1.73;;;0.50;;
14520;SDS011;7347;50.844;4.490;2023-03-05T14:58:57;1.40;;;0.50;;
14520;SDS011;7347;50.844;4.490;2023-03-05T15:01:24;1.03;;;0.40;;
14520;SDS011;7347;50.844;4.490;2023-03-05T15:03:51;0.60;;;0.40;;
14520;SDS011;7347;50.844;4.490;2023-03-05T15:06:20;1.73;;;0.70;;
14520;SDS011;7347;50.844;4.490;2023-03-05T15:08:50;1.17;;;0.50;;
14520;SDS011;7347;50.844;4.490;2023-03-05T15:11:16;1.53;;;0.70;;
14520;SDS011;7347;50.844;4.490;2023-03-05T15:13:46;18.50;;;9.77;;
14520;SDS011;7347;50.844;4.490;2023-03-05T15:16:14;1.43;;;0.80;;
14520;SDS011;7347;50.844;4.490;2023-03-05T15:18:43;1.63;;;0.50;;
14520;SDS011;7347;50.844;4.490;2023-03-05T15:21:09;1.20;;;0.70;;
14520;SDS011;7347;50.844;4.490;2023-03-05T15:23:38;3.57;;;0.70;;
14520;SDS011;7347;50.844;4.490;2023-03-05T15:26:05;3.77;;;2.00;;
14520;SDS011;7347;50.844;4.490;2023-03-05T15:28:34;2.93;;;0.80;;
14520;SDS011;7347;50.844;4.490;2023-03-05T15:31:02;1.77;;;0.87;;
14520;SDS011;7347;50.844;4.490;2023-03-05T15:33:30;6.83;;;3.07;;
14520;SDS011;7347;50.844;4.490;2023-03-05T15:35:57;2.13;;;0.70;;
14520;SDS011;7347;50.844;4.490;2023-03-05T15:38:24;0.80;;;0.50;;
14520;SDS011;7347;50.844;4.490;2023-03-05T15:40:52;2.77;;;0.60;;
14520;SDS011;7347;50.844;4.490;2023-03-05T15:43:19;1.87;;;0.70;;
14520;SDS011;7347;50.844;4.490;2023-03-05T15:45:46;2.13;;;0.90;;
14520;SDS011;7347;50.844;4.490;2023-03-05T15:48:13;2.80;;;1.13;;
14520;SDS011;7347;50.844;4.490;2023-03-05T15:50:40;2.70;;;0.77;;
14520;SDS011;7347;50.844;4.490;2023-03-05T15:53:08;1.57;;;0.90;;
14520;SDS011;7347;50.844;4.490;2023-03-05T15:55:38;1.87;;;1.37;;
14520;SDS011;7347;50.844;4.490;2023-03-05T15:58:06;1.87;;;0.70;;
14520;SDS011;7347;50.844;4.490;2023-03-05T16:00:34;1.43;;;0.90;;
14520;SDS011;7347;50.844;4.490;2023-03-05T16:03:01;1.37;;;0.70;;
14520;SDS011;7347;50.844;4.490;2023-03-05T16:05:29;1.40;;;0.70;;
14520;SDS011;7347;50.844;4.490;2023-03-05T16:07:56;1.77;;;1.10;;
14520;SDS011;7347;50.844;4.490;2023-03-05T16:10:25;1.77;;;1.07;;
14520;SDS011;7347;50.844;4.490;2023-03-05T16:12:54;2.20;;;1.00;;
14520;SDS011;7347;50.844;4.490;2023-03-05T16:15:27;1.70;;;0.77;;
14520;SDS011;7347;50.844;4.490;2023-03-05T16:17:54;1.30;;;0.90;;
14520;SDS011;7347;50.844;4.490;2023-03-05T16:20:24;0.83;;;0.80;;
14520;SDS011;7347;50.844;4.490;2023-03-05T16:22:50;3.30;;;1.00;;
14520;SDS011;7347;50.844;4.490;2023-03-05T16:25:17;1.30;;;0.80;;
14520;SDS011;7347;50.844;4.490;2023-03-05T16:27:46;1.70;;;0.90;;
14520;SDS011;7347;50.844;4.490;2023-03-05T16:30:13;1.70;;;1.00;;
14520;SDS011;7347;50.844;4.490;2023-03-05T16:32:42;3.27;;;1.40;;
14520;SDS011;7347;50.844;4.490;2023-03-05T16:35:09;1.20;;;0.90;;
14520;SDS011;7347;50.844;4.490;2023-03-05T16:37:37;4.50;;;1.30;;
14520;SDS011;7347;50.844;4.490;2023-03-05T16:40:04;5.20;;;1.27;;
14520;SDS011;7347;50.844;4.490;2023-03-05T16:42:32;2.17;;;1.30;;
14520;SDS011;7347;50.844;4.490;2023-03-05T16:44:59;3.17;;;1.53;;
14520;SDS011;7347;50.844;4.490;2023-03-05T16:47:26;6.47;;;1.80;;
14520;SDS011;7347;50.844;4.490;2023-03-05T16:49:54;2.00;;;1.50;;
14520;SDS011;7347;50.844;4.490;2023-03-05T16:52:21;2.23;;;1.33;;
14520;SDS011;7347;50.844;4.490;2023-03-05T16:54:48;3.20;;;2.00;;
14520;SDS011;7347;50.844;4.490;2023-03-05T16:57:15;3.57;;;1.73;;
14520;SDS011;7347;50.844;4.490;2023-03-05T16:59:42;5.83;;;2.30;;
14520;SDS011;7347;50.844;4.490;2023-03-05T17:02:09;3.87;;;2.03;;
14520;SDS011;7347;50.844;4.490;2023-03-05T17:04:37;3.30;;;1.90;;
14520;SDS011;7347;50.844;4.490;2023-03-05T17:07:05;3.23;;;2.20;;
14520;SDS011;7347;50.844;4.490;2023-03-05T17:09:32;5.50;;;1.97;;
14520;SDS011;7347;50.844;4.490;2023-03-05T17:11:59;3.43;;;1.83;;
14520;SDS011;7347;50.844;4.490;2023-03-05T17:14:26;6.10;;;2.00;;
14520;SDS011;7347;50.844;4.490;2023-03-05T17:16:52;4.63;;;2.30;;
14520;SDS011;7347;50.844;4.490;2023-03-05T17:19:19;5.03;;;2.20;;
14520;SDS011;7347;50.844;4.490;2023-03-05T17:21:46;3.77;;;2.10;;
14520;SDS011;7347;50.844;4.490;2023-03-05T17:24:17;4.57;;;2.47;;
14520;SDS011;7347;50.844;4.490;2023-03-05T17:26:45;4.57;;;2.53;;
14520;SDS011;7347;50.844;4.490;2023-03-05T17:29:11;6.10;;;2.80;;
14520;SDS011;7347;50.844;4.490;2023-03-05T17:31:38;6.37;;;2.60;;
14520;SDS011;7347;50.844;4.490;2023-03-05T17:34:05;4.37;;;2.50;;
14520;SDS011;7347;50.844;4.490;2023-03-05T17:36:32;5.07;;;2.90;;
14520;SDS011;7347;50.844;4.490;2023-03-05T17:38:59;6.00;;;2.67;;
14520;SDS011;7347;50.844;4.490;2023-03-05T17:41:27;4.30;;;2.87;;
14520;SDS011;7347;50.844;4.490;2023-03-05T17:43:54;6.23;;;2.73;;
14520;SDS011;7347;50.844;4.490;2023-03-05T17:46:20;6.70;;;2.77;;
14520;SDS011;7347;50.844;4.490;2023-03-05T17:48:47;5.70;;;2.90;;
14520;SDS011;7347;50.844;4.490;2023-03-05T17:51:14;4.17;;;2.53;;
14520;SDS011;7347;50.844;4.490;2023-03-05T17:53:41;11.13;;;2.73;;
14520;SDS011;7347;50.844;4.490;2023-03-05T17:56:08;10.13;;;3.13;;
14520;SDS011;7347;50.844;4.490;2023-03-05T17:58:38;8.27;;;3.93;;
14520;SDS011;7347;50.844;4.490;2023-03-05T18:01:06;6.60;;;2.87;;
14520;SDS011;7347;50.844;4.490;2023-03-05T18:03:33;5.80;;;3.13;;
14520;SDS011;7347;50.844;4.490;2023-03-05T18:06:00;7.27;;;3.53;;
14520;SDS011;7347;50.844;4.490;2023-03-05T18:08:27;8.40;;;3.13;;
14520;SDS011;7347;50.844;4.490;2023-03-05T18:10:54;7.43;;;3.17;;
14520;SDS011;7347;50.844;4.490;2023-03-05T18:13:21;7.20;;;3.30;;
14520;SDS011;7347;50.844;4.490;2023-03-05T18:15:49;8.13;;;3.27;;
14520;SDS011;7347;50.844;4.490;2023-03-05T18:18:16;6.47;;;2.93;;
14520;SDS011;7347;50.844;4.490;2023-03-05T18:20:44;7.90;;;3.00;;
14520;SDS011;7347;50.844;4.490;2023-03-05T18:23:12;8.17;;;3.33;;
14520;SDS011;7347;50.844;4.490;2023-03-05T18:25:39;6.50;;;3.40;;
14520;SDS011;7347;50.844;4.490;2023-03-05T18:28:07;7.13;;;3.13;;
14520;SDS011;7347;50.844;4.490;2023-03-05T18:30:35;6.57;;;3.07;;
14520;SDS011;7347;50.844;4.490;2023-03-05T18:33:04;10.33;;;3.73;;
14520;SDS011;7347;50.844;4.490;2023-03-05T18:35:31;9.27;;;3.50;;
14520;SDS011;7347;50.844;4.490;2023-03-05T18:37:58;10.97;;;3.73;;
14520;SDS011;7347;50.844;4.490;2023-03-05T18:40:26;6.60;;;3.17;;
14520;SDS011;7347;50.844;4.490;2023-03-05T18:42:58;8.53;;;3.80;;
14520;SDS011;7347;50.844;4.490;2023-03-05T18:45:25;5.37;;;3.00;;
14520;SDS011;7347;50.844;4.490;2023-03-05T18:47:52;6.07;;;3.37;;
14520;SDS011;7347;50.844;4.490;2023-03-05T18:50:25;5.70;;;2.87;;
14520;SDS011;7347;50.844;4.490;2023-03-05T18:52:54;5.33;;;2.70;;
14520;SDS011;7347;50.844;4.490;2023-03-05T18:55:22;9.70;;;3.10;;
14520;SDS011;7347;50.844;4.490;2023-03-05T18:57:49;5.40;;;3.30;;
14520;SDS011;7347;50.844;4.490;2023-03-05T19:00:17;9.30;;;4.67;;
14520;SDS011;7347;50.844;4.490;2023-03-05T19:02:45;33.03;;;11.83;;
14520;SDS011;7347;50.844;4.490;2023-03-05T19:05:12;43.33;;;17.13;;
14520;SDS011;7347;50.844;4.490;2023-03-05T19:07:41;53.53;;;21.00;;
14520;SDS011;7347;50.844;4.490;2023-03-05T19:10:08;27.80;;;10.03;;
14520;SDS011;7347;50.844;4.490;2023-03-05T19:12:37;8.10;;;5.03;;
14520;SDS011;7347;50.844;4.490;2023-03-05T19:15:13;9.00;;;4.20;;
14520;SDS011;7347;50.844;4.490;2023-03-05T19:17:41;11.40;;;3.90;;
14520;SDS011;7347;50.844;4.490;2023-03-05T19:20:09;7.70;;;4.27;;
14520;SDS011;7347;50.844;4.490;2023-03-05T19:22:37;8.37;;;3.90;;
14520;SDS011;7347;50.844;4.490;2023-03-05T19:25:06;7.57;;;3.10;;
14520;SDS011;7347;50.844;4.490;2023-03-05T19:27:34;6.53;;;3.20;;
14520;SDS011;7347;50.844;4.490;2023-03-05T19:30:01;6.10;;;3.23;;
14520;SDS011;7347;50.844;4.490;2023-03-05T19:32:28;5.40;;;3.23;;
14520;SDS011;7347;50.844;4.490;2023-03-05T19:34:55;4.40;;;2.90;;
14520;SDS011;7347;50.844;4.490;2023-03-05T19:37:23;5.73;;;3.13;;
14520;SDS011;7347;50.844;4.490;2023-03-05T19:39:50;8.93;;;3.60;;
14520;SDS011;7347;50.844;4.490;2023-03-05T19:42:19;6.50;;;3.90;;
14520;SDS011;7347;50.844;4.490;2023-03-05T19:44:45;8.73;;;4.40;;
14520;SDS011;7347;50.844;4.490;2023-03-05T19:47:12;8.80;;;4.97;;
14520;SDS011;7347;50.844;4.490;2023-03-05T19:49:39;10.90;;;4.60;;
14520;SDS011;7347;50.844;4.490;2023-03-05T19:52:06;7.93;;;4.23;;
14520;SDS011;7347;50.844;4.490;2023-03-05T19:54:33;8.77;;;4.67;;
14520;SDS011;7347;50.844;4.490;2023-03-05T19:57:00;8.07;;;4.07;;
14520;SDS011;7347;50.844;4.490;2023-03-05T19:59:28;8.73;;;3.83;;
14520;SDS011;7347;50.844;4.490;2023-03-05T20:01:55;10.70;;;4.37;;
14520;SDS011;7347;50.844;4.490;2023-03-05T20:04:22;7.63;;;4.00;;
14520;SDS011;7347;50.844;4.490;2023-03-05T20:06:49;8.77;;;4.80;;
14520;SDS011;7347;50.844;4.490;2023-03-05T20:09:16;9.73;;;5.03;;
14520;SDS011;7347;50.844;4.490;2023-03-05T20:11:43;8.20;;;4.37;;
14520;SDS011;7347;50.844;4.490;2023-03-05T20:14:11;12.77;;;4.33;;
14520;SDS011;7347;50.844;4.490;2023-03-05T20:16:40;13.50;;;4.73;;
14520;SDS011;7347;50.844;4.490;2023-03-05T20:19:10;7.67;;;4.30;;
14520;SDS011;7347;50.844;4.490;2023-03-05T20:21:41;9.13;;;4.43;;
14520;SDS011;7347;50.844;4.490;2023-03-05T20:24:10;8.50;;;4.57;;
14520;SDS011;7347;50.844;4.490;2023-03-05T20:26:39;10.13;;;4.90;;
14520;SDS011;7347;50.844;4.490;2023-03-05T20:29:07;8.93;;;4.50;;
14520;SDS011;7347;50.844;4.490;2023-03-05T20:31:34;7.83;;;3.73;;
14520;SDS011;7347;50.844;4.490;2023-03-05T20:34:03;9.97;;;4.63;;
14520;SDS011;7347;50.844;4.490;2023-03-05T20:36:31;10.07;;;4.30;;
14520;SDS011;7347;50.844;4.490;2023-03-05T20:38:59;9.97;;;4.70;;
14520;SDS011;7347;50.844;4.490;2023-03-05T20:41:27;9.10;;;3.83;;
14520;SDS011;7347;50.844;4.490;2023-03-05T20:43:54;9.67;;;4.20;;
14520;SDS011;7347;50.844;4.490;2023-03-05T20:46:22;6.80;;;3.80;;
14520;SDS011;7347;50.844;4.490;2023-03-05T20:48:50;7.60;;;4.27;;
14520;SDS011;7347;50.844;4.490;2023-03-05T20:51:22;10.00;;;4.53;;
14520;SDS011;7347;50.844;4.490;2023-03-05T20:53:51;10.10;;;4.87;;
14520;SDS011;7347;50.844;4.490;2023-03-05T20:56:21;11.67;;;4.90;;
14520;SDS011;7347;50.844;4.490;2023-03-05T20:58:49;7.97;;;4.47;;
14520;SDS011;7347;50.844;4.490;2023-03-05T21:01:15;7.00;;;4.60;;
14520;SDS011;7347;50.844;4.490;2023-03-05T21:03:42;8.77;;;4.53;;
14520;SDS011;7347;50.844;4.490;2023-03-05T21:06:09;9.07;;;4.67;;
14520;SDS011;7347;50.844;4.490;2023-03-05T21:08:37;10.80;;;5.03;;
14520;SDS011;7347;50.844;4.490;2023-03-05T21:11:05;13.80;;;4.57;;
14520;SDS011;7347;50.844;4.490;2023-03-05T21:13:32;13.10;;;4.50;;
14520;SDS011;7347;50.844;4.490;2023-03-05T21:15:59;7.43;;;4.77;;
14520;SDS011;7347;50.844;4.490;2023-03-05T21:18:30;10.53;;;5.00;;
14520;SDS011;7347;50.844;4.490;2023-03-05T21:20:57;9.87;;;5.30;;
14520;SDS011;7347;50.844;4.490;2023-03-05T21:23:23;13.13;;;5.70;;
14520;SDS011;7347;50.844;4.490;2023-03-05T21:25:52;14.77;;;5.37;;
14520;SDS011;7347;50.844;4.490;2023-03-05T21:28:18;11.60;;;4.57;;
14520;SDS011;7347;50.844;4.490;2023-03-05T21:30:46;14.17;;;6.00;;
14520;SDS011;7347;50.844;4.490;2023-03-05T21:33:16;10.03;;;5.00;;
14520;SDS011;7347;50.844;4.490;2023-03-05T21:35:44;12.17;;;6.47;;
14520;SDS011;7347;50.844;4.490;2023-03-05T21:38:11;11.07;;;5.53;;
14520;SDS011;7347;50.844;4.490;2023-03-05T21:40:39;13.60;;;6.77;;
14520;SDS011;7347;50.844;4.490;2023-03-05T21:43:09;14.83;;;6.63;;
14520;SDS011;7347;50.844;4.490;2023-03-05T21:45:36;10.80;;;5.97;;
14520;SDS011;7347;50.844;4.490;2023-03-05T21:48:04;12.57;;;6.17;;
14520;SDS011;7347;50.844;4.490;2023-03-05T21:50:31;13.63;;;6.37;;
14520;SDS011;7347;50.844;4.490;2023-03-05T21:52:59;13.80;;;6.27;;
14520;SDS011;7347;50.844;4.490;2023-03-05T21:55:26;14.30;;;7.07;;
14520;SDS011;7347;50.844;4.490;2023-03-05T21:57:57;16.63;;;7.50;;
14520;SDS011;7347;50.844;4.490;2023-03-05T22:00:25;15.07;;;6.17;;
14520;SDS011;7347;50.844;4.490;2023-03-05T22:02:52;21.53;;;6.97;;
14520;SDS011;7347;50.844;4.490;2023-03-05T22:05:20;15.67;;;7.77;;
14520;SDS011;7347;50.844;4.490;2023-03-05T22:07:46;16.07;;;7.00;;
14520;SDS011;7347;50.844;4.490;2023-03-05T22:10:14;15.33;;;7.00;;
14520;SDS011;7347;50.844;4.490;2023-03-05T22:12:43;17.07;;;7.67;;
14520;SDS011;7347;50.844;4.490;2023-03-05T22:15:18;18.90;;;7.93;;
14520;SDS011;7347;50.844;4.490;2023-03-05T22:17:46;16.97;;;7.53;;
14520;SDS011;7347;50.844;4.490;2023-03-05T22:20:14;13.93;;;7.30;;
14520;SDS011;7347;50.844;4.490;2023-03-05T22:22:41;17.90;;;7.80;;
